METAR Data
IDs: Format: Raw Decoded Include TAF

Data at: 0733 UTC 03 Aug 2021

KMMH 030514Z AUTO 19003KT 10SM CLR 17/00 A3042 RMK AO2
KMMH 030455Z AUTO 00000KT 10SM CLR 19/00 A3043 RMK AO2
KMMH 030135Z AUTO 29016G20KT 10SM CLR 27/M01 A3038 RMK AO2
KMMH 030114Z AUTO 31015G18KT 10SM CLR 29/M01 A3038 RMK AO2
KMMH 022236Z AUTO 00000KT 10SM BKN110 30/00 A3040 RMK AO2
KMMH 022216Z AUTO 16004KT 10SM SCT110 30/00 A3040 RMK AO2
KMMH 022154Z AUTO 12004KT 10SM SCT110 28/00 A3040 RMK AO2
KMMH 022056Z AUTO 13010G16KT 10SM CLR 29/01 A3042 RMK AO2
KMMH 022016Z AUTO 15004G15KT 10SM CLR 28/01 A3043 RMK AO2
KMMH 021855Z AUTO 10007G18KT 10SM CLR 27/02 A3045 RMK AO2
KMMH 021815Z AUTO 12005KT 10SM CLR 27/03 A3046 RMK AO2
KMMH 021654Z AUTO 15003KT 10SM CLR 23/04 A3047 RMK AO2
KMMH 021616Z AUTO 13005KT 10SM CLR 21/04 A3048 RMK AO2
KMMH 021456Z AUTO 00000KT 10SM CLR 15/04 A3049 RMK AO2
KMMH 021415Z AUTO 00000KT 10SM CLR 12/03 A3048 RMK AO2
KMMH 021336Z AUTO 00000KT 10SM CLR 08/02 A3048 RMK AO2
KMMH 021255Z AUTO 00000KT 10SM CLR 09/02 A3046 RMK AO2
KMMH 021235Z AUTO 34003KT 10SM CLR 09/02 A3046 RMK AO2
KMMH 021135Z AUTO 00000KT 10SM CLR 10/02 A3045 RMK AO2
KMMH 021115Z AUTO 36004KT 10SM CLR 10/02 A3044 RMK AO2
KMMH 021035Z AUTO 00000KT 10SM CLR 10/02 A3044 RMK AO2
KMMH 020934Z AUTO 00000KT 10SM CLR 11/03 A3044 RMK AO2
KMMH 020855Z AUTO 00000KT 10SM CLR 11/02 A3045 RMK AO2
KMMH 020836Z AUTO 00000KT 10SM CLR 12/03 A3045 RMK AO2
KMMH 020815Z AUTO 00000KT 10SM CLR 13/03 A3045 RMK AO2
KMMH 020755Z AUTO 00000KT 10SM CLR 12/03 A3045 RMK AO2
KMMH 020636Z AUTO 00000KT 10SM CLR 15/02 A3045 RMK AO2
KMMH 020616Z AUTO 00000KT 10SM CLR 16/01 A3045 RMK AO2
KMMH 020555Z AUTO 00000KT 10SM CLR 17/01 A3045 RMK AO2
KMMH 020535Z AUTO 00000KT 10SM CLR 18/01 A3045 RMK AO2
KMMH 020515Z AUTO 00000KT 10SM CLR 18/01 A3044 RMK AO2
KMMH 020455Z AUTO 00000KT 10SM CLR 19/01 A3044 RMK AO2
KMMH 020416Z AUTO 28008KT 10SM BKN090 20/02 A3043 RMK AO2
KMMH 020335Z AUTO 31010G16KT 10SM SCT090 21/02 A3041 RMK AO2
KMMH 020315Z AUTO 29010G16KT 10SM CLR 21/02 A3040 RMK AO2
KMMH 020214Z AUTO 25008KT 10SM CLR 24/01 A3038 RMK AO2
KMMH 020115Z AUTO 28014G20KT 10SM CLR 26/01 A3038 RMK AO2
KMMH 020055Z AUTO 28018G24KT 10SM SCT110 26/01 A3038 RMK AO2
KMMH 012255Z AUTO 29013G20KT 10SM SCT095 BKN110 28/02 A3038 RMK AO2
KMMH 012115Z AUTO 15004KT 10SM OVC085 25/04 A3040 RMK AO2
KMMH 012055Z AUTO 15004KT 10SM BKN085 25/04 A3040 RMK AO2
KMMH 011935Z AUTO 17009KT 10SM CLR 26/05 A3042 RMK AO2